createdAt,value
2023-05-24T00:02:52.180Z,0.56
2023-05-24T00:08:00.895Z,0.6
2023-05-24T00:13:09.988Z,0.59
2023-05-24T00:18:19.737Z,0.58
2023-05-24T00:23:28.924Z,0.52
2023-05-24T00:28:38.643Z,0.55
2023-05-24T00:33:48.399Z,0.51
2023-05-24T00:38:57.556Z,0.55
2023-05-24T00:44:06.010Z,0.61
2023-05-24T00:49:15.119Z,0.5
2023-05-24T00:54:23.562Z,0.53
2023-05-24T00:59:33.351Z,0.57
2023-05-24T01:04:41.826Z,0.51
2023-05-24T01:09:50.987Z,0.55
2023-05-24T01:15:00.716Z,0.55
2023-05-24T01:20:11.579Z,0.49
2023-05-24T01:25:20.916Z,0.51
2023-05-24T01:30:30.719Z,0.57
2023-05-24T01:35:40.391Z,0.54
2023-05-24T01:40:50.804Z,0.56
2023-05-24T01:45:59.269Z,0.57
2023-05-24T01:51:09.068Z,0.51
2023-05-24T01:56:18.136Z,0.51
2023-05-24T02:01:28.096Z,0.52
2023-05-24T02:06:37.013Z,0.57
2023-05-24T02:11:45.535Z,0.54
2023-05-24T02:16:54.172Z,0.52
2023-05-24T02:22:02.516Z,0.48
2023-05-24T02:27:11.597Z,0.48
2023-05-24T02:32:21.345Z,0.56
2023-05-24T05:30:38.320Z,0.62
2023-05-24T05:35:55.305Z,0.65
2023-05-24T05:41:01.365Z,0.81
2023-05-24T07:05:07.760Z,0.71
2023-05-24T07:10:24.019Z,0.69
2023-05-24T07:15:39.901Z,0.64
2023-05-24T07:20:54.980Z,0.79
2023-05-24T07:26:11.646Z,0.72
2023-05-24T07:31:26.626Z,0.73
2023-05-24T07:36:41.882Z,0.7
2023-05-24T07:41:58.806Z,0.72
2023-05-24T07:47:13.945Z,0.64
2023-05-24T07:52:30.019Z,0.73
2023-05-24T07:57:45.591Z,0.72
2023-05-24T08:03:01.472Z,0.83
2023-05-24T08:08:15.666Z,0.7
2023-05-24T08:13:31.450Z,0.73
2023-05-24T08:18:46.383Z,0.75
2023-05-24T08:24:01.853Z,0.7
2023-05-24T08:29:17.783Z,0.72
2023-05-24T08:34:38.754Z,0.73
2023-05-24T08:39:53.161Z,0.75
2023-05-24T08:45:09.121Z,0.77
2023-05-24T08:50:25.185Z,0.76
2023-05-24T08:55:42.762Z,0.68
2023-05-24T09:43:09.433Z,0.69
2023-05-24T09:48:23.279Z,0.76
2023-05-24T09:53:32.209Z,0.72
2023-05-24T09:58:48.083Z,0.75
2023-05-24T10:04:10.917Z,0.78
2023-05-24T10:09:19.677Z,0.73
2023-05-24T10:14:35.113Z,0.73
2023-05-24T10:19:49.933Z,0.94
2023-05-24T10:25:04.753Z,0.78
2023-05-24T10:30:19.204Z,0.75
2023-05-24T10:35:34.203Z,0.76
2023-05-24T10:40:51.867Z,0.78
2023-05-24T10:46:04.802Z,0.75
2023-05-24T10:51:39.310Z,0.77
2023-05-24T10:56:56.219Z,0.75
2023-05-24T11:02:12.562Z,0.72
2023-05-24T11:07:28.012Z,0.74
2023-05-24T11:12:42.786Z,0.77
2023-05-24T11:17:59.459Z,0.76
2023-05-24T11:23:14.335Z,0.8
2023-05-24T11:28:29.704Z,0.77
2023-05-24T11:33:43.973Z,0.77
2023-05-24T11:38:59.556Z,0.75
2023-05-24T11:44:15.051Z,0.81
2023-05-24T11:49:31.275Z,0.8
2023-05-24T11:54:45.678Z,0.79
2023-05-24T12:00:00.569Z,0.78
2023-05-24T12:05:15.822Z,0.82
2023-05-24T12:10:30.626Z,0.73
2023-05-24T12:15:45.406Z,0.76
2023-05-24T12:21:01.028Z,0.81
2023-05-24T12:26:15.589Z,0.8
2023-05-24T12:31:30.708Z,0.85
2023-05-24T12:36:46.056Z,0.79
2023-05-24T12:42:02.347Z,0.79
2023-05-24T12:47:19.415Z,0.81
2023-05-24T12:52:34.861Z,0.85
2023-05-24T12:57:51.327Z,0.82
2023-05-24T13:03:05.645Z,0.82
2023-05-24T13:08:20.687Z,0.93
2023-05-24T13:13:35.608Z,0.87
2023-05-24T13:18:50.883Z,0.87
2023-05-24T13:24:05.754Z,0.81
2023-05-24T13:30:01.941Z,0.84
2023-05-24T13:34:36.799Z,0.81
2023-05-24T13:39:51.694Z,0.9
2023-05-24T13:45:07.509Z,0.83
2023-05-24T13:50:23.609Z,0.86
2023-05-24T13:55:39.180Z,0.88
2023-05-24T14:00:55.071Z,0.95
2023-05-24T14:32:58.004Z,0.96
2023-05-24T14:38:06.011Z,0.9
2023-05-24T14:43:22.202Z,0.86
2023-05-24T14:48:37.443Z,0.92
2023-05-24T14:53:53.204Z,0.88
2023-05-24T14:59:08.646Z,0.84
2023-05-24T15:04:24.649Z,0.89
2023-05-24T15:09:41.105Z,0.87
2023-05-24T15:14:56.954Z,0.92
2023-05-24T15:20:12.118Z,0.85
2023-05-24T15:25:28.235Z,0.9
2023-05-24T15:30:45.326Z,0.92
2023-05-24T15:35:59.977Z,1.02
2023-05-24T15:41:17.056Z,0.92
2023-05-24T15:46:32.500Z,0.88
2023-05-24T15:52:05.828Z,0.91
2023-05-24T15:57:43.387Z,0.93
2023-05-24T16:03:12.148Z,0.95
2023-05-24T16:08:26.136Z,0.95
2023-05-24T16:13:42.294Z,0.91
2023-05-24T16:18:58.488Z,0.9
2023-05-24T16:24:14.001Z,0.98
2023-05-24T16:29:30.201Z,0.93
2023-05-24T16:34:57.648Z,0.9
2023-05-24T16:39:59.934Z,0.91
2023-05-24T16:45:16.138Z,0.92
2023-05-24T16:50:31.726Z,0.93
2023-05-24T16:55:47.161Z,0.88
2023-05-24T17:01:02.671Z,0.91
2023-05-24T17:06:18.394Z,0.88
2023-05-24T17:11:33.736Z,0.88
2023-05-24T17:16:48.761Z,0.94
2023-05-24T18:04:18.820Z,0.92
2023-05-24T18:09:27.470Z,0.94
2023-05-24T18:14:43.322Z,0.87
2023-05-24T18:19:58.346Z,0.94
2023-05-24T18:25:13.273Z,0.87
2023-05-24T18:30:28.391Z,0.86
2023-05-24T18:35:45.456Z,0.9
2023-05-24T18:40:59.458Z,0.91
2023-05-24T18:46:16.210Z,0.9
2023-05-24T18:51:31.740Z,0.9
2023-05-24T18:56:47.314Z,0.89
2023-05-24T19:02:03.273Z,0.93
2023-05-24T19:07:18.873Z,0.88
2023-05-24T19:12:34.492Z,0.89
2023-05-24T19:17:50.849Z,0.86
2023-05-24T19:23:05.324Z,0.96
2023-05-24T19:28:21.662Z,1.05
2023-05-24T19:34:01.453Z,0.89
2023-05-24T19:38:52.863Z,0.92
2023-05-24T19:44:07.571Z,0.97
2023-05-24T19:49:22.480Z,0.91
2023-05-24T19:54:38.329Z,0.84
2023-05-24T19:59:53.084Z,0.91
2023-05-24T20:05:08.966Z,0.85
2023-05-24T20:10:24.582Z,0.84
2023-05-24T20:15:39.959Z,0.88
2023-05-24T20:20:55.312Z,0.85
2023-05-24T20:26:09.688Z,0.89
2023-05-24T20:31:30.597Z,0.84
2023-05-24T20:36:45.375Z,0.83
2023-05-24T20:42:00.977Z,0.88
2023-05-24T20:47:16.114Z,0.9
2023-05-24T20:52:32.342Z,0.9
2023-05-24T20:57:48.056Z,0.82
2023-05-24T21:03:05.070Z,0.89
2023-05-24T21:08:19.106Z,0.86
2023-05-24T21:13:36.157Z,0.84
2023-05-24T21:18:50.751Z,0.83
2023-05-24T21:24:07.308Z,0.96
2023-05-24T21:29:21.546Z,0.88
2023-05-24T22:11:34.633Z,0.85
2023-05-24T22:16:51.090Z,0.83
2023-05-24T22:21:58.704Z,0.82
2023-05-24T22:27:12.960Z,0.81
2023-05-24T22:32:28.435Z,0.82
2023-05-24T22:37:44.228Z,0.8
2023-05-24T22:43:00.256Z,0.84
2023-05-24T22:48:15.839Z,0.85
2023-05-24T22:53:29.996Z,0.83
2023-05-24T22:58:44.388Z,0.91
2023-05-24T23:04:22.230Z,0.85
2023-05-24T23:09:16.269Z,0.83
2023-05-24T23:14:30.693Z,0.82
2023-05-24T23:19:46.904Z,0.85
2023-05-24T23:25:01.688Z,0.88
2023-05-24T23:30:17.283Z,0.86
2023-05-24T23:35:32.369Z,0.81
2023-05-24T23:40:48.319Z,0.84
2023-05-24T23:46:04.719Z,0.82
2023-05-24T23:51:20.286Z,0.84
2023-05-24T23:56:35.580Z,0.84
